Terminal Aerodrome Forecast
Issued by NWS Cleveland, OH

Home | Current Version | Previous Version | Text Only | Print | Product List | Glossary On
Versions: 1 2 3 4 5 6 7 8 9 10 11 12 13 14 15 16 17
000
FTUS41 KCLE 301100
TAFCAK
TAF
KCAK 301126Z 3012/3112 28005KT P6SM SCT025 BKN050
      TEMPO 3012/3016 4SM -SHRA BKN025
     FM301700 29005KT P6SM FEW035 SCT120 BKN200
     FM310200 VRB03KT P6SM OVC100
     FM310800 21003KT P6SM SCT035 OVC050=

USA.gov is the U.S. government's official web portal to all federal, state and local government web resources and services.